sensor_id;sensor_type;location;lat;lon;timestamp;P1;durP1;ratioP1;P2;durP2;ratioP2
72895;SDS011;61036;53.224;6.554;2024-02-23T00:01:30;4.93;;;1.30;;
72895;SDS011;61036;53.224;6.554;2024-02-23T00:03:56;5.40;;;1.40;;
72895;SDS011;61036;53.224;6.554;2024-02-23T00:06:21;4.03;;;1.10;;
72895;SDS011;61036;53.224;6.554;2024-02-23T00:08:53;6.70;;;1.40;;
72895;SDS011;61036;53.224;6.554;2024-02-23T00:11:23;6.10;;;1.37;;
72895;SDS011;61036;53.224;6.554;2024-02-23T00:13:49;5.77;;;1.57;;
72895;SDS011;61036;53.224;6.554;2024-02-23T00:16:14;6.03;;;1.27;;
72895;SDS011;61036;53.224;6.554;2024-02-23T00:18:40;8.17;;;1.37;;
72895;SDS011;61036;53.224;6.554;2024-02-23T00:21:05;4.47;;;1.60;;
72895;SDS011;61036;53.224;6.554;2024-02-23T00:23:31;5.13;;;1.30;;
72895;SDS011;61036;53.224;6.554;2024-02-23T00:25:56;7.13;;;1.53;;
72895;SDS011;61036;53.224;6.554;2024-02-23T00:28:22;7.47;;;1.37;;
72895;SDS011;61036;53.224;6.554;2024-02-23T00:30:47;5.87;;;1.60;;
72895;SDS011;61036;53.224;6.554;2024-02-23T00:33:13;8.30;;;1.30;;
72895;SDS011;61036;53.224;6.554;2024-02-23T00:35:39;10.00;;;1.53;;
72895;SDS011;61036;53.224;6.554;2024-02-23T00:38:04;7.67;;;1.63;;
72895;SDS011;61036;53.224;6.554;2024-02-23T00:40:30;4.73;;;1.20;;
72895;SDS011;61036;53.224;6.554;2024-02-23T00:42:55;5.83;;;1.30;;
72895;SDS011;61036;53.224;6.554;2024-02-23T00:45:21;6.23;;;1.17;;
72895;SDS011;61036;53.224;6.554;2024-02-23T00:47:47;5.87;;;1.60;;
72895;SDS011;61036;53.224;6.554;2024-02-23T00:50:13;8.10;;;1.67;;
72895;SDS011;61036;53.224;6.554;2024-02-23T00:52:39;3.07;;;1.10;;
72895;SDS011;61036;53.224;6.554;2024-02-23T00:55:06;4.53;;;1.27;;
72895;SDS011;61036;53.224;6.554;2024-02-23T00:57:33;6.03;;;1.30;;
72895;SDS011;61036;53.224;6.554;2024-02-23T01:00:00;4.00;;;1.20;;
72895;SDS011;61036;53.224;6.554;2024-02-23T01:02:28;3.80;;;1.40;;
72895;SDS011;61036;53.224;6.554;2024-02-23T01:04:54;4.53;;;1.50;;
72895;SDS011;61036;53.224;6.554;2024-02-23T01:07:22;6.00;;;1.60;;
72895;SDS011;61036;53.224;6.554;2024-02-23T01:09:48;5.57;;;1.33;;
72895;SDS011;61036;53.224;6.554;2024-02-23T01:12:13;3.67;;;1.47;;
72895;SDS011;61036;53.224;6.554;2024-02-23T01:14:39;5.93;;;1.80;;
72895;SDS011;61036;53.224;6.554;2024-02-23T01:17:04;6.13;;;1.77;;
72895;SDS011;61036;53.224;6.554;2024-02-23T01:19:30;6.27;;;1.90;;
72895;SDS011;61036;53.224;6.554;2024-02-23T01:21:55;11.43;;;2.50;;
72895;SDS011;61036;53.224;6.554;2024-02-23T01:24:27;9.10;;;2.20;;
72895;SDS011;61036;53.224;6.554;2024-02-23T01:26:57;6.50;;;1.60;;
72895;SDS011;61036;53.224;6.554;2024-02-23T01:29:25;7.83;;;1.90;;
72895;SDS011;61036;53.224;6.554;2024-02-23T01:31:51;6.20;;;1.47;;
72895;SDS011;61036;53.224;6.554;2024-02-23T01:34:17;8.90;;;2.00;;
72895;SDS011;61036;53.224;6.554;2024-02-23T01:36:43;4.97;;;1.43;;
72895;SDS011;61036;53.224;6.554;2024-02-23T01:39:09;6.67;;;1.80;;
72895;SDS011;61036;53.224;6.554;2024-02-23T01:41:36;6.17;;;1.63;;
72895;SDS011;61036;53.224;6.554;2024-02-23T01:44:02;10.27;;;2.07;;
72895;SDS011;61036;53.224;6.554;2024-02-23T01:46:27;8.63;;;1.87;;
72895;SDS011;61036;53.224;6.554;2024-02-23T01:48:53;8.87;;;2.40;;
72895;SDS011;61036;53.224;6.554;2024-02-23T01:51:19;5.97;;;1.70;;
72895;SDS011;61036;53.224;6.554;2024-02-23T01:53:45;7.13;;;2.07;;
72895;SDS011;61036;53.224;6.554;2024-02-23T01:56:10;7.90;;;1.73;;
72895;SDS011;61036;53.224;6.554;2024-02-23T01:58:42;7.87;;;2.03;;
72895;SDS011;61036;53.224;6.554;2024-02-23T02:01:09;10.73;;;1.97;;
72895;SDS011;61036;53.224;6.554;2024-02-23T02:03:37;6.80;;;1.70;;
72895;SDS011;61036;53.224;6.554;2024-02-23T02:06:04;8.53;;;2.47;;
72895;SDS011;61036;53.224;6.554;2024-02-23T02:08:30;9.93;;;2.27;;
72895;SDS011;61036;53.224;6.554;2024-02-23T02:10:56;9.53;;;2.00;;
72895;SDS011;61036;53.224;6.554;2024-02-23T02:13:22;13.07;;;2.37;;
72895;SDS011;61036;53.224;6.554;2024-02-23T02:15:47;10.67;;;2.33;;
72895;SDS011;61036;53.224;6.554;2024-02-23T02:18:12;8.70;;;2.40;;
72895;SDS011;61036;53.224;6.554;2024-02-23T02:20:38;17.00;;;3.53;;
72895;SDS011;61036;53.224;6.554;2024-02-23T02:23:09;13.83;;;2.60;;
72895;SDS011;61036;53.224;6.554;2024-02-23T02:25:36;14.73;;;2.57;;
72895;SDS011;61036;53.224;6.554;2024-02-23T02:28:04;13.10;;;2.67;;
72895;SDS011;61036;53.224;6.554;2024-02-23T02:30:31;15.67;;;3.20;;
72895;SDS011;61036;53.224;6.554;2024-02-23T02:32:56;6.07;;;2.33;;
72895;SDS011;61036;53.224;6.554;2024-02-23T02:35:22;17.90;;;3.07;;
72895;SDS011;61036;53.224;6.554;2024-02-23T02:37:47;12.87;;;2.50;;
72895;SDS011;61036;53.224;6.554;2024-02-23T02:40:13;7.60;;;2.20;;
72895;SDS011;61036;53.224;6.554;2024-02-23T02:42:38;9.03;;;2.50;;
72895;SDS011;61036;53.224;6.554;2024-02-23T02:45:04;7.10;;;2.33;;
72895;SDS011;61036;53.224;6.554;2024-02-23T02:47:29;7.17;;;2.07;;
72895;SDS011;61036;53.224;6.554;2024-02-23T02:49:55;7.37;;;1.83;;
72895;SDS011;61036;53.224;6.554;2024-02-23T02:52:20;14.43;;;2.80;;
72895;SDS011;61036;53.224;6.554;2024-02-23T02:54:48;10.80;;;2.40;;
72895;SDS011;61036;53.224;6.554;2024-02-23T02:57:14;9.77;;;2.93;;
72895;SDS011;61036;53.224;6.554;2024-02-23T02:59:39;10.03;;;2.87;;
72895;SDS011;61036;53.224;6.554;2024-02-23T03:02:05;10.00;;;2.67;;
72895;SDS011;61036;53.224;6.554;2024-02-23T03:04:30;8.93;;;2.27;;
72895;SDS011;61036;53.224;6.554;2024-02-23T03:06:56;9.50;;;2.70;;
72895;SDS011;61036;53.224;6.554;2024-02-23T03:09:21;13.23;;;2.93;;
72895;SDS011;61036;53.224;6.554;2024-02-23T03:11:47;13.33;;;2.83;;
72895;SDS011;61036;53.224;6.554;2024-02-23T03:14:13;9.93;;;2.93;;
72895;SDS011;61036;53.224;6.554;2024-02-23T03:16:38;11.10;;;2.40;;
72895;SDS011;61036;53.224;6.554;2024-02-23T03:19:04;17.07;;;2.87;;
72895;SDS011;61036;53.224;6.554;2024-02-23T03:21:30;9.50;;;2.27;;
72895;SDS011;61036;53.224;6.554;2024-02-23T03:23:55;5.63;;;1.90;;
72895;SDS011;61036;53.224;6.554;2024-02-23T03:26:21;7.30;;;2.33;;
72895;SDS011;61036;53.224;6.554;2024-02-23T03:28:46;12.13;;;2.63;;
72895;SDS011;61036;53.224;6.554;2024-02-23T03:31:13;8.33;;;1.87;;
72895;SDS011;61036;53.224;6.554;2024-02-23T03:33:39;10.73;;;2.53;;
72895;SDS011;61036;53.224;6.554;2024-02-23T03:36:05;11.57;;;2.60;;
72895;SDS011;61036;53.224;6.554;2024-02-23T03:38:31;8.83;;;1.87;;
72895;SDS011;61036;53.224;6.554;2024-02-23T03:40:56;10.43;;;3.17;;
72895;SDS011;61036;53.224;6.554;2024-02-23T03:43:22;9.23;;;2.17;;
72895;SDS011;61036;53.224;6.554;2024-02-23T03:45:47;13.90;;;2.67;;
72895;SDS011;61036;53.224;6.554;2024-02-23T03:48:13;10.37;;;1.93;;
72895;SDS011;61036;53.224;6.554;2024-02-23T03:50:38;12.17;;;2.07;;
72895;SDS011;61036;53.224;6.554;2024-02-23T03:53:04;8.87;;;2.10;;
72895;SDS011;61036;53.224;6.554;2024-02-23T03:55:29;11.30;;;2.23;;
72895;SDS011;61036;53.224;6.554;2024-02-23T03:57:55;11.40;;;2.40;;
72895;SDS011;61036;53.224;6.554;2024-02-23T04:00:20;10.67;;;2.03;;
72895;SDS011;61036;53.224;6.554;2024-02-23T04:02:48;12.73;;;2.33;;
72895;SDS011;61036;53.224;6.554;2024-02-23T04:05:14;14.30;;;2.40;;
72895;SDS011;61036;53.224;6.554;2024-02-23T04:07:39;11.30;;;2.20;;
72895;SDS011;61036;53.224;6.554;2024-02-23T04:10:05;8.50;;;2.27;;
72895;SDS011;61036;53.224;6.554;2024-02-23T04:12:31;11.10;;;2.40;;
72895;SDS011;61036;53.224;6.554;2024-02-23T04:14:57;8.93;;;2.10;;
72895;SDS011;61036;53.224;6.554;2024-02-23T04:17:22;9.30;;;2.00;;
72895;SDS011;61036;53.224;6.554;2024-02-23T04:19:47;9.23;;;2.10;;
72895;SDS011;61036;53.224;6.554;2024-02-23T04:22:13;13.17;;;2.20;;
72895;SDS011;61036;53.224;6.554;2024-02-23T04:24:39;5.53;;;1.77;;
72895;SDS011;61036;53.224;6.554;2024-02-23T04:27:05;10.57;;;2.30;;
72895;SDS011;61036;53.224;6.554;2024-02-23T04:29:31;7.33;;;2.07;;
72895;SDS011;61036;53.224;6.554;2024-02-23T04:32:00;7.07;;;2.00;;
72895;SDS011;61036;53.224;6.554;2024-02-23T04:34:27;8.20;;;1.77;;
72895;SDS011;61036;53.224;6.554;2024-02-23T04:36:53;9.87;;;2.17;;
72895;SDS011;61036;53.224;6.554;2024-02-23T04:39:19;7.33;;;2.00;;
72895;SDS011;61036;53.224;6.554;2024-02-23T04:41:45;11.63;;;2.53;;
72895;SDS011;61036;53.224;6.554;2024-02-23T04:44:13;9.60;;;2.07;;
72895;SDS011;61036;53.224;6.554;2024-02-23T04:46:39;9.50;;;2.27;;
72895;SDS011;61036;53.224;6.554;2024-02-23T04:49:04;11.27;;;1.70;;
72895;SDS011;61036;53.224;6.554;2024-02-23T04:51:30;8.53;;;1.97;;
72895;SDS011;61036;53.224;6.554;2024-02-23T04:53:55;10.70;;;1.90;;
72895;SDS011;61036;53.224;6.554;2024-02-23T04:56:21;11.93;;;2.03;;
72895;SDS011;61036;53.224;6.554;2024-02-23T04:58:46;6.47;;;1.80;;
72895;SDS011;61036;53.224;6.554;2024-02-23T05:01:12;6.63;;;1.70;;
72895;SDS011;61036;53.224;6.554;2024-02-23T05:03:38;10.27;;;1.80;;
72895;SDS011;61036;53.224;6.554;2024-02-23T05:06:03;7.83;;;2.10;;
72895;SDS011;61036;53.224;6.554;2024-02-23T05:08:30;8.20;;;2.07;;
72895;SDS011;61036;53.224;6.554;2024-02-23T05:10:56;9.43;;;2.17;;
72895;SDS011;61036;53.224;6.554;2024-02-23T05:13:22;9.07;;;1.80;;
72895;SDS011;61036;53.224;6.554;2024-02-23T05:15:48;6.80;;;1.70;;
72895;SDS011;61036;53.224;6.554;2024-02-23T05:18:13;7.57;;;1.70;;
72895;SDS011;61036;53.224;6.554;2024-02-23T05:20:39;10.33;;;1.90;;
72895;SDS011;61036;53.224;6.554;2024-02-23T05:23:04;10.57;;;2.60;;
72895;SDS011;61036;53.224;6.554;2024-02-23T05:25:30;12.13;;;2.57;;
72895;SDS011;61036;53.224;6.554;2024-02-23T05:27:55;9.27;;;2.13;;
72895;SDS011;61036;53.224;6.554;2024-02-23T05:30:21;10.03;;;2.13;;
72895;SDS011;61036;53.224;6.554;2024-02-23T05:32:47;11.57;;;2.20;;
72895;SDS011;61036;53.224;6.554;2024-02-23T05:35:13;8.80;;;1.90;;
72895;SDS011;61036;53.224;6.554;2024-02-23T05:37:38;9.83;;;1.93;;
72895;SDS011;61036;53.224;6.554;2024-02-23T05:40:04;13.20;;;2.37;;
72895;SDS011;61036;53.224;6.554;2024-02-23T05:42:37;12.47;;;2.67;;
72895;SDS011;61036;53.224;6.554;2024-02-23T05:45:03;9.47;;;1.87;;
72895;SDS011;61036;53.224;6.554;2024-02-23T05:47:30;6.93;;;1.70;;
72895;SDS011;61036;53.224;6.554;2024-02-23T05:49:56;8.33;;;2.17;;
72895;SDS011;61036;53.224;6.554;2024-02-23T05:52:22;8.27;;;1.93;;
72895;SDS011;61036;53.224;6.554;2024-02-23T05:54:47;10.83;;;2.80;;
72895;SDS011;61036;53.224;6.554;2024-02-23T05:57:13;7.60;;;2.40;;
72895;SDS011;61036;53.224;6.554;2024-02-23T05:59:38;10.20;;;2.20;;
72895;SDS011;61036;53.224;6.554;2024-02-23T06:02:04;9.57;;;2.30;;
72895;SDS011;61036;53.224;6.554;2024-02-23T06:04:29;10.23;;;3.07;;
72895;SDS011;61036;53.224;6.554;2024-02-23T06:06:55;8.07;;;2.73;;
72895;SDS011;61036;53.224;6.554;2024-02-23T06:09:20;11.33;;;3.27;;
72895;SDS011;61036;53.224;6.554;2024-02-23T06:11:46;7.47;;;2.73;;
72895;SDS011;61036;53.224;6.554;2024-02-23T06:14:11;11.07;;;3.10;;
72895;SDS011;61036;53.224;6.554;2024-02-23T06:16:37;11.07;;;4.13;;
72895;SDS011;61036;53.224;6.554;2024-02-23T06:19:03;10.03;;;4.13;;
72895;SDS011;61036;53.224;6.554;2024-02-23T06:21:28;9.93;;;4.70;;
72895;SDS011;61036;53.224;6.554;2024-02-23T06:23:54;11.60;;;5.13;;
72895;SDS011;61036;53.224;6.554;2024-02-23T06:26:20;11.77;;;4.73;;
72895;SDS011;61036;53.224;6.554;2024-02-23T06:28:46;13.00;;;5.47;;
72895;SDS011;61036;53.224;6.554;2024-02-23T06:31:12;9.60;;;5.53;;
72895;SDS011;61036;53.224;6.554;2024-02-23T06:33:38;11.33;;;5.30;;
72895;SDS011;61036;53.224;6.554;2024-02-23T06:36:04;13.77;;;6.17;;
72895;SDS011;61036;53.224;6.554;2024-02-23T06:38:30;12.40;;;5.37;;
72895;SDS011;61036;53.224;6.554;2024-02-23T06:40:55;18.17;;;5.90;;
72895;SDS011;61036;53.224;6.554;2024-02-23T06:43:21;15.50;;;6.40;;
72895;SDS011;61036;53.224;6.554;2024-02-23T06:45:47;11.37;;;5.30;;
72895;SDS011;61036;53.224;6.554;2024-02-23T06:48:12;14.13;;;5.83;;
72895;SDS011;61036;53.224;6.554;2024-02-23T06:50:38;13.07;;;6.03;;
72895;SDS011;61036;53.224;6.554;2024-02-23T06:53:03;12.53;;;5.27;;
72895;SDS011;61036;53.224;6.554;2024-02-23T06:55:30;12.90;;;6.00;;
72895;SDS011;61036;53.224;6.554;2024-02-23T06:57:56;17.17;;;5.90;;
72895;SDS011;61036;53.224;6.554;2024-02-23T07:00:21;11.90;;;5.30;;
72895;SDS011;61036;53.224;6.554;2024-02-23T07:02:47;12.80;;;6.13;;
72895;SDS011;61036;53.224;6.554;2024-02-23T07:05:12;14.30;;;5.80;;
72895;SDS011;61036;53.224;6.554;2024-02-23T07:07:39;15.50;;;6.23;;
72895;SDS011;61036;53.224;6.554;2024-02-23T07:10:05;15.87;;;6.20;;
72895;SDS011;61036;53.224;6.554;2024-02-23T07:12:31;11.60;;;7.00;;
72895;SDS011;61036;53.224;6.554;2024-02-23T07:14:57;16.90;;;6.73;;
72895;SDS011;61036;53.224;6.554;2024-02-23T07:17:23;14.43;;;6.47;;
72895;SDS011;61036;53.224;6.554;2024-02-23T07:19:49;14.70;;;6.77;;
72895;SDS011;61036;53.224;6.554;2024-02-23T07:22:16;14.67;;;6.97;;
72895;SDS011;61036;53.224;6.554;2024-02-23T07:24:43;15.17;;;7.23;;
72895;SDS011;61036;53.224;6.554;2024-02-23T07:27:08;15.20;;;6.80;;
72895;SDS011;61036;53.224;6.554;2024-02-23T07:29:34;14.03;;;6.47;;
72895;SDS011;61036;53.224;6.554;2024-02-23T07:32:00;15.73;;;6.80;;
72895;SDS011;61036;53.224;6.554;2024-02-23T07:34:25;13.40;;;6.40;;
72895;SDS011;61036;53.224;6.554;2024-02-23T07:36:54;10.30;;;5.93;;
72895;SDS011;61036;53.224;6.554;2024-02-23T07:39:19;15.67;;;6.50;;
72895;SDS011;61036;53.224;6.554;2024-02-23T07:41:45;14.30;;;6.77;;
72895;SDS011;61036;53.224;6.554;2024-02-23T07:44:11;10.17;;;5.83;;
72895;SDS011;61036;53.224;6.554;2024-02-23T07:46:37;13.60;;;6.50;;
72895;SDS011;61036;53.224;6.554;2024-02-23T07:49:03;13.67;;;6.20;;
72895;SDS011;61036;53.224;6.554;2024-02-23T07:51:29;12.33;;;5.20;;
72895;SDS011;61036;53.224;6.554;2024-02-23T07:53:55;14.27;;;5.93;;
72895;SDS011;61036;53.224;6.554;2024-02-23T07:56:20;11.13;;;4.70;;
72895;SDS011;61036;53.224;6.554;2024-02-23T07:58:46;13.50;;;5.27;;
72895;SDS011;61036;53.224;6.554;2024-02-23T08:01:12;11.27;;;4.93;;
72895;SDS011;61036;53.224;6.554;2024-02-23T08:03:39;11.57;;;5.33;;
72895;SDS011;61036;53.224;6.554;2024-02-23T08:06:05;10.07;;;4.50;;
72895;SDS011;61036;53.224;6.554;2024-02-23T08:08:31;12.23;;;4.70;;
72895;SDS011;61036;53.224;6.554;2024-02-23T08:11:00;10.33;;;4.87;;
72895;SDS011;61036;53.224;6.554;2024-02-23T08:13:27;13.77;;;4.80;;
72895;SDS011;61036;53.224;6.554;2024-02-23T08:15:52;9.97;;;4.87;;
72895;SDS011;61036;53.224;6.554;2024-02-23T08:18:18;11.73;;;5.13;;
72895;SDS011;61036;53.224;6.554;2024-02-23T08:20:43;9.67;;;4.33;;
72895;SDS011;61036;53.224;6.554;2024-02-23T08:23:09;10.33;;;4.50;;
72895;SDS011;61036;53.224;6.554;2024-02-23T08:25:34;8.80;;;4.80;;
72895;SDS011;61036;53.224;6.554;2024-02-23T08:28:01;10.13;;;4.33;;
72895;SDS011;61036;53.224;6.554;2024-02-23T08:30:26;7.17;;;4.00;;
72895;SDS011;61036;53.224;6.554;2024-02-23T08:32:52;7.97;;;3.90;;
72895;SDS011;61036;53.224;6.554;2024-02-23T08:35:17;10.23;;;4.03;;
72895;SDS011;61036;53.224;6.554;2024-02-23T08:37:43;9.47;;;3.77;;
72895;SDS011;61036;53.224;6.554;2024-02-23T08:40:09;10.13;;;3.90;;
72895;SDS011;61036;53.224;6.554;2024-02-23T08:42:35;7.97;;;3.57;;
72895;SDS011;61036;53.224;6.554;2024-02-23T08:45:01;8.13;;;3.87;;
72895;SDS011;61036;53.224;6.554;2024-02-23T08:47:27;7.17;;;2.77;;
72895;SDS011;61036;53.224;6.554;2024-02-23T08:49:57;8.20;;;3.03;;
72895;SDS011;61036;53.224;6.554;2024-02-23T08:52:23;7.83;;;3.00;;
72895;SDS011;61036;53.224;6.554;2024-02-23T08:54:48;8.73;;;3.07;;
72895;SDS011;61036;53.224;6.554;2024-02-23T08:57:14;6.47;;;2.80;;
72895;SDS011;61036;53.224;6.554;2024-02-23T08:59:42;6.30;;;2.77;;
72895;SDS011;61036;53.224;6.554;2024-02-23T09:02:08;8.33;;;2.60;;
72895;SDS011;61036;53.224;6.554;2024-02-23T09:04:35;6.93;;;2.40;;
72895;SDS011;61036;53.224;6.554;2024-02-23T09:07:01;5.63;;;2.20;;
72895;SDS011;61036;53.224;6.554;2024-02-23T09:09:27;7.50;;;2.53;;
72895;SDS011;61036;53.224;6.554;2024-02-23T09:11:52;3.90;;;2.00;;
72895;SDS011;61036;53.224;6.554;2024-02-23T09:14:18;9.20;;;2.43;;
72895;SDS011;61036;53.224;6.554;2024-02-23T09:16:43;6.90;;;2.00;;
72895;SDS011;61036;53.224;6.554;2024-02-23T09:19:11;5.23;;;2.40;;
72895;SDS011;61036;53.224;6.554;2024-02-23T09:21:37;6.30;;;2.47;;
72895;SDS011;61036;53.224;6.554;2024-02-23T09:24:03;6.30;;;2.30;;
72895;SDS011;61036;53.224;6.554;2024-02-23T09:26:29;7.30;;;2.40;;
72895;SDS011;61036;53.224;6.554;2024-02-23T09:28:55;9.53;;;2.30;;
72895;SDS011;61036;53.224;6.554;2024-02-23T09:31:20;7.37;;;2.57;;
72895;SDS011;61036;53.224;6.554;2024-02-23T09:33:46;6.70;;;2.40;;
72895;SDS011;61036;53.224;6.554;2024-02-23T09:36:12;9.37;;;2.47;;
72895;SDS011;61036;53.224;6.554;2024-02-23T09:38:37;6.77;;;2.10;;
72895;SDS011;61036;53.224;6.554;2024-02-23T09:41:03;8.57;;;2.30;;
72895;SDS011;61036;53.224;6.554;2024-02-23T09:43:29;8.60;;;2.23;;
72895;SDS011;61036;53.224;6.554;2024-02-23T09:45:57;7.13;;;2.37;;
72895;SDS011;61036;53.224;6.554;2024-02-23T09:48:22;8.53;;;2.07;;
72895;SDS011;61036;53.224;6.554;2024-02-23T09:50:49;7.43;;;2.10;;
72895;SDS011;61036;53.224;6.554;2024-02-23T09:53:15;7.23;;;1.83;;
72895;SDS011;61036;53.224;6.554;2024-02-23T09:55:42;7.60;;;2.30;;
72895;SDS011;61036;53.224;6.554;2024-02-23T09:58:10;6.07;;;2.10;;
72895;SDS011;61036;53.224;6.554;2024-02-23T10:00:40;8.13;;;2.50;;
72895;SDS011;61036;53.224;6.554;2024-02-23T10:03:06;5.63;;;1.80;;
72895;SDS011;61036;53.224;6.554;2024-02-23T10:05:31;10.47;;;2.77;;
72895;SDS011;61036;53.224;6.554;2024-02-23T10:07:57;7.27;;;1.97;;
72895;SDS011;61036;53.224;6.554;2024-02-23T10:10:33;6.67;;;1.83;;
72895;SDS011;61036;53.224;6.554;2024-02-23T10:12:59;9.63;;;2.20;;
72895;SDS011;61036;53.224;6.554;2024-02-23T10:15:26;7.07;;;1.60;;
72895;SDS011;61036;53.224;6.554;2024-02-23T10:17:54;4.90;;;1.77;;
72895;SDS011;61036;53.224;6.554;2024-02-23T10:20:19;9.50;;;2.57;;
72895;SDS011;61036;53.224;6.554;2024-02-23T10:22:45;10.63;;;1.77;;
72895;SDS011;61036;53.224;6.554;2024-02-23T10:25:11;5.27;;;1.57;;
72895;SDS011;61036;53.224;6.554;2024-02-23T10:27:37;7.43;;;1.80;;
72895;SDS011;61036;53.224;6.554;2024-02-23T10:30:02;7.17;;;2.33;;
72895;SDS011;61036;53.224;6.554;2024-02-23T10:32:29;7.47;;;1.67;;
72895;SDS011;61036;53.224;6.554;2024-02-23T10:34:55;4.83;;;1.63;;
72895;SDS011;61036;53.224;6.554;2024-02-23T10:37:25;8.33;;;2.43;;
72895;SDS011;61036;53.224;6.554;2024-02-23T10:39:53;5.37;;;2.20;;
72895;SDS011;61036;53.224;6.554;2024-02-23T10:42:22;6.70;;;1.80;;
72895;SDS011;61036;53.224;6.554;2024-02-23T10:44:53;5.20;;;1.87;;
72895;SDS011;61036;53.224;6.554;2024-02-23T10:47:21;7.73;;;1.67;;
72895;SDS011;61036;53.224;6.554;2024-02-23T10:49:47;6.33;;;1.33;;
72895;SDS011;61036;53.224;6.554;2024-02-23T10:52:13;4.53;;;1.40;;
72895;SDS011;61036;53.224;6.554;2024-02-23T10:54:40;7.80;;;1.90;;
72895;SDS011;61036;53.224;6.554;2024-02-23T10:57:06;6.67;;;1.47;;
72895;SDS011;61036;53.224;6.554;2024-02-23T10:59:32;5.43;;;1.60;;
72895;SDS011;61036;53.224;6.554;2024-02-23T11:01:58;6.20;;;1.70;;
72895;SDS011;61036;53.224;6.554;2024-02-23T11:04:26;8.80;;;2.03;;
72895;SDS011;61036;53.224;6.554;2024-02-23T11:06:54;5.53;;;1.80;;
72895;SDS011;61036;53.224;6.554;2024-02-23T11:09:21;8.53;;;1.83;;
72895;SDS011;61036;53.224;6.554;2024-02-23T11:11:54;6.90;;;1.57;;
72895;SDS011;61036;53.224;6.554;2024-02-23T11:14:37;4.93;;;1.63;;
72895;SDS011;61036;53.224;6.554;2024-02-23T11:17:03;6.57;;;1.57;;
72895;SDS011;61036;53.224;6.554;2024-02-23T11:19:35;5.60;;;1.63;;
72895;SDS011;61036;53.224;6.554;2024-02-23T11:22:02;6.30;;;1.87;;
72895;SDS011;61036;53.224;6.554;2024-02-23T11:24:28;7.73;;;1.33;;
72895;SDS011;61036;53.224;6.554;2024-02-23T11:27:04;16.03;;;2.27;;
72895;SDS011;61036;53.224;6.554;2024-02-23T11:29:35;6.07;;;1.87;;
72895;SDS011;61036;53.224;6.554;2024-02-23T11:32:11;7.63;;;1.83;;
72895;SDS011;61036;53.224;6.554;2024-02-23T11:34:38;7.72;;;2.13;;
72895;SDS011;61036;53.224;6.554;2024-02-23T11:37:11;6.43;;;1.90;;
72895;SDS011;61036;53.224;6.554;2024-02-23T11:39:37;7.67;;;1.77;;
72895;SDS011;61036;53.224;6.554;2024-02-23T11:42:06;7.53;;;2.33;;
72895;SDS011;61036;53.224;6.554;2024-02-23T11:44:32;7.00;;;2.23;;
72895;SDS011;61036;53.224;6.554;2024-02-23T11:46:58;7.67;;;2.73;;
72895;SDS011;61036;53.224;6.554;2024-02-23T11:49:27;7.73;;;2.17;;
72895;SDS011;61036;53.224;6.554;2024-02-23T11:51:54;5.70;;;1.40;;
72895;SDS011;61036;53.224;6.554;2024-02-23T11:54:20;6.47;;;1.90;;
72895;SDS011;61036;53.224;6.554;2024-02-23T11:56:47;7.83;;;1.60;;
72895;SDS011;61036;53.224;6.554;2024-02-23T11:59:14;6.90;;;1.60;;
72895;SDS011;61036;53.224;6.554;2024-02-23T12:01:40;5.87;;;1.67;;
72895;SDS011;61036;53.224;6.554;2024-02-23T12:04:06;5.57;;;1.60;;
72895;SDS011;61036;53.224;6.554;2024-02-23T12:06:32;5.40;;;1.60;;
72895;SDS011;61036;53.224;6.554;2024-02-23T12:08:59;5.50;;;1.67;;
72895;SDS011;61036;53.224;6.554;2024-02-23T12:11:25;7.77;;;2.00;;
72895;SDS011;61036;53.224;6.554;2024-02-23T12:13:52;7.67;;;1.63;;
72895;SDS011;61036;53.224;6.554;2024-02-23T12:16:18;5.97;;;1.80;;
72895;SDS011;61036;53.224;6.554;2024-02-23T12:18:45;8.97;;;1.70;;
72895;SDS011;61036;53.224;6.554;2024-02-23T12:21:18;5.43;;;1.60;;
72895;SDS011;61036;53.224;6.554;2024-02-23T12:23:44;7.07;;;2.13;;
72895;SDS011;61036;53.224;6.554;2024-02-23T12:26:12;4.10;;;1.60;;
72895;SDS011;61036;53.224;6.554;2024-02-23T12:28:38;5.67;;;1.90;;
72895;SDS011;61036;53.224;6.554;2024-02-23T12:31:05;6.93;;;1.87;;
72895;SDS011;61036;53.224;6.554;2024-02-23T12:33:32;6.40;;;1.90;;
72895;SDS011;61036;53.224;6.554;2024-02-23T12:36:00;7.43;;;1.83;;
72895;SDS011;61036;53.224;6.554;2024-02-23T12:38:26;4.57;;;1.70;;
72895;SDS011;61036;53.224;6.554;2024-02-23T12:40:52;6.67;;;1.87;;
72895;SDS011;61036;53.224;6.554;2024-02-23T12:43:18;7.23;;;1.80;;
72895;SDS011;61036;53.224;6.554;2024-02-23T12:45:46;6.93;;;2.00;;
72895;SDS011;61036;53.224;6.554;2024-02-23T12:48:17;7.33;;;1.90;;
72895;SDS011;61036;53.224;6.554;2024-02-23T12:50:43;4.80;;;1.83;;
72895;SDS011;61036;53.224;6.554;2024-02-23T12:56:02;7.23;;;2.00;;
72895;SDS011;61036;53.224;6.554;2024-02-23T12:58:28;8.00;;;2.10;;
72895;SDS011;61036;53.224;6.554;2024-02-23T13:00:55;6.13;;;1.67;;
72895;SDS011;61036;53.224;6.554;2024-02-23T13:03:21;4.23;;;1.70;;
72895;SDS011;61036;53.224;6.554;2024-02-23T13:05:46;4.23;;;1.60;;
72895;SDS011;61036;53.224;6.554;2024-02-23T13:08:12;7.03;;;2.00;;
72895;SDS011;61036;53.224;6.554;2024-02-23T13:10:37;6.00;;;1.83;;
72895;SDS011;61036;53.224;6.554;2024-02-23T13:13:03;5.43;;;1.83;;
72895;SDS011;61036;53.224;6.554;2024-02-23T13:15:29;4.50;;;1.37;;
72895;SDS011;61036;53.224;6.554;2024-02-23T13:17:54;4.07;;;1.57;;
72895;SDS011;61036;53.224;6.554;2024-02-23T13:20:22;6.63;;;1.77;;
72895;SDS011;61036;53.224;6.554;2024-02-23T13:22:47;3.87;;;1.50;;
72895;SDS011;61036;53.224;6.554;2024-02-23T13:25:13;5.60;;;1.53;;
72895;SDS011;61036;53.224;6.554;2024-02-23T13:27:38;5.97;;;1.90;;
72895;SDS011;61036;53.224;6.554;2024-02-23T13:30:04;3.87;;;1.77;;
72895;SDS011;61036;53.224;6.554;2024-02-23T13:32:30;3.57;;;1.47;;
72895;SDS011;61036;53.224;6.554;2024-02-23T13:34:56;5.37;;;1.80;;
72895;SDS011;61036;53.224;6.554;2024-02-23T13:37:22;6.93;;;2.00;;
72895;SDS011;61036;53.224;6.554;2024-02-23T13:39:47;5.60;;;1.60;;
72895;SDS011;61036;53.224;6.554;2024-02-23T13:42:13;5.70;;;1.67;;
72895;SDS011;61036;53.224;6.554;2024-02-23T13:44:39;3.93;;;1.70;;
72895;SDS011;61036;53.224;6.554;2024-02-23T13:47:04;6.57;;;2.10;;
72895;SDS011;61036;53.224;6.554;2024-02-23T13:49:30;4.70;;;1.70;;
72895;SDS011;61036;53.224;6.554;2024-02-23T13:51:55;7.53;;;2.10;;
72895;SDS011;61036;53.224;6.554;2024-02-23T13:54:21;11.03;;;3.07;;
72895;SDS011;61036;53.224;6.554;2024-02-23T13:56:47;4.83;;;1.90;;
72895;SDS011;61036;53.224;6.554;2024-02-23T13:59:12;5.63;;;2.00;;
72895;SDS011;61036;53.224;6.554;2024-02-23T14:01:38;7.80;;;2.90;;
72895;SDS011;61036;53.224;6.554;2024-02-23T14:04:07;5.83;;;2.13;;
72895;SDS011;61036;53.224;6.554;2024-02-23T14:06:33;7.30;;;2.07;;
72895;SDS011;61036;53.224;6.554;2024-02-23T14:08:58;4.70;;;2.03;;
72895;SDS011;61036;53.224;6.554;2024-02-23T14:11:24;6.80;;;2.50;;
72895;SDS011;61036;53.224;6.554;2024-02-23T14:13:49;6.63;;;2.27;;
72895;SDS011;61036;53.224;6.554;2024-02-23T14:16:15;9.10;;;2.13;;
72895;SDS011;61036;53.224;6.554;2024-02-23T14:18:41;5.57;;;2.13;;
72895;SDS011;61036;53.224;6.554;2024-02-23T14:21:09;5.87;;;2.13;;
72895;SDS011;61036;53.224;6.554;2024-02-23T14:23:35;6.90;;;2.57;;
72895;SDS011;61036;53.224;6.554;2024-02-23T14:26:01;5.33;;;2.03;;
72895;SDS011;61036;53.224;6.554;2024-02-23T14:28:27;5.60;;;2.00;;
72895;SDS011;61036;53.224;6.554;2024-02-23T14:30:53;6.60;;;2.30;;
72895;SDS011;61036;53.224;6.554;2024-02-23T14:33:18;8.83;;;2.53;;
72895;SDS011;61036;53.224;6.554;2024-02-23T14:35:45;5.57;;;2.20;;
72895;SDS011;61036;53.224;6.554;2024-02-23T14:38:11;6.47;;;2.10;;
72895;SDS011;61036;53.224;6.554;2024-02-23T14:40:36;7.60;;;2.20;;